Clarksboro, New Jersey
Current Conditions -  °F | °C
As of 4:54 PM on Friday 31 Oct 2014 (Local Time) from KPHL Reporting Station
Broken Clouds Broken Clouds  
Wind Chill: 11°   Ceiling: 3900
Heat Index: 11°   Visibility: 10mi
Dew Point:   Wind: 10mph
Humidity: 53%   Direction: 50°NE
Pressure: 29.9"   Gusts: NA
Location:  39.8°N, 75.22°W
Report Text: KPHL 312054Z 05009KT 10SM BKN039 BKN060 11/02 A2990 RMK AO2 SLP123 T01110017 55009 $
Loading
Personal Weather Stations






























Interactive Weather Map
Tropical Storm Tracking
New forecast layout! Learn more

10-Day Weather Forecast

Advertisements
Track Severe Weather on mobile